Time;durP1;ratioP1;P1;durP2;ratioP2;P2;SDS_P1;SDS_P2;PMS_P1;PMS_P2;Temp;Humidity;BMP_temperature;BMP_pressure;BME280_temperature;BME280_humidity;BME280_pressure;Samples;Min_cycle;Max_cycle;Signal;HPM_P1;HPM_P2
2022/01/16 00:00:09;;;;;;;324.08;76.80;;;;;;;4.07;54.95;100586.72;342660;28;3036;-73
2022/01/16 00:00:22;;;;;;;325.42;77.78;;;;;;;4.09;55.02;100587.59;341157;28;813;-74
2022/01/16 00:00:40;;;;;;;325.13;78.90;;;;;;;4.09;55.15;100590.19;338514;28;877;-73
2022/01/16 00:01:35;;;;;;;326.65;78.13;;;;;;;4.11;55.00;100583.28;341893;28;1978;-73
2022/01/16 00:04:05;;;;;;;325.35;79.40;;;;;;;4.07;54.77;100588.44;343260;28;884;-73
2022/01/16 00:04:11;;;;;;;322.60;77.95;;;;;;;4.12;55.12;100603.13;341886;28;935;-73
2022/01/16 00:04:24;;;;;;;322.70;77.15;;;;;;;4.14;55.04;100600.56;337706;29;988;-74
2022/01/16 00:04:34;;;;;;;323.48;77.07;;;;;;;4.16;55.06;100599.69;340233;29;917;-74
2022/01/16 00:04:45;;;;;;;325.37;78.90;;;;;;;4.14;54.75;100596.25;340371;28;873;-74
2022/01/16 00:04:55;;;;;;;327.67;79.83;;;;;;;4.13;54.92;100599.69;341639;28;825;-74
2022/01/16 00:05:06;;;;;;;328.67;81.67;;;;;;;4.10;54.76;100598.81;338488;29;1319;-73
2022/01/16 00:05:16;;;;;;;327.88;80.43;;;;;;;4.11;55.01;100601.41;336128;29;814;-74
2022/01/16 00:05:28;;;;;;;327.47;80.57;;;;;;;4.12;54.95;100607.47;334364;29;850;-74
2022/01/16 00:05:39;;;;;;;328.70;80.72;;;;;;;4.11;54.88;100593.63;339250;29;1522;-74
2022/01/16 00:05:49;;;;;;;329.52;80.60;;;;;;;4.12;54.73;100597.09;341616;28;1139;-74
2022/01/16 00:05:59;;;;;;;330.17;80.93;;;;;;;4.12;54.85;100594.50;341722;28;879;-74
2022/01/16 00:06:10;;;;;;;330.58;81.88;;;;;;;4.12;54.48;100608.31;341698;28;1600;-74
2022/01/16 00:06:20;;;;;;;330.00;82.83;;;;;;;4.11;54.76;100597.97;341565;28;1478;-73
2022/01/16 00:06:31;;;;;;;328.83;82.63;;;;;;;4.11;54.65;100601.41;344303;28;1215;-73
2022/01/16 00:06:43;;;;;;;326.20;81.10;;;;;;;4.11;54.69;100590.19;339044;29;1434;-74
2022/01/16 00:06:53;;;;;;;324.30;79.32;;;;;;;4.11;54.79;100595.38;337703;29;960;-74
2022/01/16 00:07:04;;;;;;;323.40;78.18;;;;;;;4.11;55.00;100601.41;340622;29;888;-74
2022/01/16 00:07:14;;;;;;;323.30;78.03;;;;;;;4.11;54.60;100593.63;344209;28;840;-73
2022/01/16 00:07:25;;;;;;;324.27;78.47;;;;;;;4.11;54.66;100588.47;341768;28;751;-73
2022/01/16 00:07:35;;;;;;;325.73;78.17;;;;;;;4.09;54.64;100587.59;341542;28;951;-73
2022/01/16 00:07:45;;;;;;;326.10;78.60;;;;;;;4.09;54.68;100597.94;344056;28;1789;-73
2022/01/16 00:07:56;;;;;;;327.07;79.63;;;;;;;4.06;54.81;100589.31;344389;28;770;-73
2022/01/16 00:08:07;;;;;;;326.23;80.35;;;;;;;4.05;54.78;100596.22;339183;29;999;-73
2022/01/16 00:08:17;;;;;;;324.45;78.60;;;;;;;4.07;55.04;100596.22;342945;28;845;-73
2022/01/16 00:08:27;;;;;;;324.73;79.07;;;;;;;4.08;54.78;100593.63;341517;28;948;-73
2022/01/16 00:08:38;;;;;;;324.35;78.55;;;;;;;4.08;54.57;100591.03;340332;29;1198;-73
2022/01/16 00:08:48;;;;;;;326.00;79.17;;;;;;;4.09;54.72;100591.91;340226;29;1028;-73
2022/01/16 00:08:59;;;;;;;323.43;77.73;;;;;;;4.10;55.01;100593.63;337738;29;1383;-73
2022/01/16 00:09:09;;;;;;;323.33;77.43;;;;;;;4.10;54.99;100588.47;341675;28;1214;-73
2022/01/16 00:09:20;;;;;;;324.55;77.25;;;;;;;4.10;54.62;100589.31;340461;28;1309;-74
2022/01/16 00:09:31;;;;;;;325.03;76.97;;;;;;;4.10;54.81;100589.31;341604;28;1213;-73
2022/01/16 00:09:42;;;;;;;325.38;77.53;;;;;;;4.11;54.82;100591.06;340398;29;1352;-73
2022/01/16 00:09:52;;;;;;;325.25;79.43;;;;;;;4.09;54.77;100587.59;340494;29;857;-73
2022/01/16 00:10:03;;;;;;;325.37;79.93;;;;;;;4.10;54.76;100594.50;338829;28;1178;-74
2022/01/16 00:10:14;;;;;;;326.63;80.95;;;;;;;4.08;54.99;100593.63;334904;29;1294;-74
2022/01/16 00:10:25;;;;;;;326.73;81.63;;;;;;;4.09;54.67;100595.38;338259;29;901;-73
2022/01/16 00:10:35;;;;;;;327.48;82.15;;;;;;;4.07;54.38;100594.50;337427;29;1205;-74
2022/01/16 00:10:46;;;;;;;324.42;80.30;;;;;;;4.07;54.61;100589.31;340318;29;913;-74
2022/01/16 00:10:56;;;;;;;323.00;78.33;;;;;;;4.08;54.74;100590.19;340343;29;841;-73
2022/01/16 00:11:07;;;;;;;325.02;78.60;;;;;;;4.08;54.85;100591.03;339009;29;1323;-73
2022/01/16 00:11:18;;;;;;;326.70;77.82;;;;;;;4.08;55.01;100596.22;338912;29;1346;-74
2022/01/16 00:11:29;;;;;;;327.53;78.53;;;;;;;4.06;54.68;100587.59;338955;29;886;-74
2022/01/16 00:11:39;;;;;;;327.13;78.75;;;;;;;4.05;54.84;100591.03;342963;28;790;-73
2022/01/16 00:11:50;;;;;;;326.67;80.72;;;;;;;4.05;54.78;100590.19;344753;28;2136;-73
2022/01/16 00:12:04;;;;;;;325.45;80.78;;;;;;;4.03;54.54;100591.91;341712;28;945;-73
2022/01/16 00:12:18;;;;;;;323.60;80.35;;;;;;;4.02;54.62;100585.84;337527;29;1292;-73
2022/01/16 00:12:29;;;;;;;323.10;79.07;;;;;;;4.02;54.97;100596.22;339138;29;860;-73
2022/01/16 00:12:39;;;;;;;324.60;78.82;;;;;;;4.03;55.08;100597.94;340504;28;1118;-73
2022/01/16 00:12:52;;;;;;;324.63;79.03;;;;;;;4.03;54.53;100592.75;341500;28;902;-73
2022/01/16 00:13:02;;;;;;;323.60;78.93;;;;;;;4.03;54.94;100587.59;345637;28;919;-74
2022/01/16 00:13:13;;;;;;;323.77;80.10;;;;;;;4.03;55.17;100587.59;342869;28;885;-73
2022/01/16 00:13:23;;;;;;;325.17;80.13;;;;;;;4.03;54.87;100587.59;342897;28;885;-73
2022/01/16 00:13:34;;;;;;;325.67;80.05;;;;;;;4.01;55.02;100599.66;343132;28;1279;-73
2022/01/16 00:13:44;;;;;;;326.60;79.93;;;;;;;4.01;54.93;100595.34;340972;28;2056;-73
2022/01/16 00:13:54;;;;;;;326.38;78.82;;;;;;;4.03;55.29;100604.84;342456;28;1165;-74
2022/01/16 00:14:05;;;;;;;326.23;78.30;;;;;;;4.02;55.09;100596.22;340455;28;1193;-73
2022/01/16 00:14:15;;;;;;;323.40;76.72;;;;;;;4.01;55.00;100599.66;340305;29;895;-73
2022/01/16 00:14:28;;;;;;;324.40;77.33;;;;;;;4.01;55.01;100600.53;340036;29;1355;-73
2022/01/16 00:14:38;;;;;;;323.95;76.40;;;;;;;4.02;54.86;100598.81;341549;28;870;-73
2022/01/16 00:14:50;;;;;;;323.63;75.57;;;;;;;4.01;54.68;100604.84;341661;28;1355;-73
2022/01/16 00:15:01;;;;;;;324.50;76.57;;;;;;;4.01;55.16;100604.84;343367;28;1019;-73
2022/01/16 00:15:11;;;;;;;324.63;79.00;;;;;;;4.00;54.67;100603.97;340004;28;1231;-74
2022/01/16 00:15:22;;;;;;;326.93;81.27;;;;;;;4.00;55.04;100603.13;339761;28;1254;-73
2022/01/16 00:15:32;;;;;;;326.75;81.15;;;;;;;4.02;55.06;100606.56;335835;29;1403;-74
2022/01/16 00:15:44;;;;;;;327.77;81.00;;;;;;;4.03;55.27;100595.34;340997;28;1342;-74
2022/01/16 00:15:54;;;;;;;325.75;79.20;;;;;;;4.03;55.10;100603.13;342800;28;887;-74
2022/01/16 00:16:05;;;;;;;324.67;78.65;;;;;;;4.06;55.22;100597.09;341077;28;1928;-74
2022/01/16 00:16:16;;;;;;;323.73;78.53;;;;;;;4.05;55.16;100611.75;344117;28;1368;-74
2022/01/16 00:16:26;;;;;;;323.70;78.47;;;;;;;4.05;55.15;100605.72;340433;28;917;-74
2022/01/16 00:16:37;;;;;;;323.20;78.82;;;;;;;4.03;54.89;100603.13;340198;28;1248;-74
2022/01/16 00:16:47;;;;;;;325.03;79.97;;;;;;;4.06;54.80;100610.91;340169;29;990;-74
2022/01/16 00:16:58;;;;;;;324.55;79.47;;;;;;;4.06;54.78;100605.72;340553;28;925;-74
2022/01/16 00:17:08;;;;;;;324.30;78.43;;;;;;;4.06;55.08;100607.44;340125;29;1920;-74
2022/01/16 00:17:21;;;;;;;322.95;77.90;;;;;;;4.07;54.93;100604.84;339992;29;1447;-74
2022/01/16 00:17:35;;;;;;;324.42;79.00;;;;;;;4.07;54.76;100609.16;341478;28;1349;-74
2022/01/16 00:18:26;;;;;;;324.40;76.35;;;;;;;4.03;55.01;100617.78;339893;29;912;-74
2022/01/16 00:18:40;;;;;;;326.77;79.00;;;;;;;4.05;54.85;100614.34;340007;28;1058;-74
2022/01/16 00:18:49;;;;;;;326.20;77.65;;;;;;;3.99;54.71;100622.97;340068;28;1377;-74
2022/01/16 00:18:59;;;;;;;323.30;77.95;;;;;;;4.02;54.90;100622.13;341260;28;905;-74
2022/01/16 00:19:10;;;;;;;322.33;78.13;;;;;;;4.04;55.17;100619.53;342810;28;1327;-74
2022/01/16 00:19:20;;;;;;;323.43;77.77;;;;;;;4.00;54.84;100626.44;344052;28;1337;-74
2022/01/16 00:19:31;;;;;;;326.00;78.93;;;;;;;4.00;55.03;100631.59;341623;28;866;-74
2022/01/16 00:19:41;;;;;;;328.13;79.50;;;;;;;3.98;55.19;100625.56;342996;28;1292;-74
2022/01/16 00:19:51;;;;;;;327.80;79.32;;;;;;;3.98;55.03;100625.56;339168;29;1276;-74
2022/01/16 00:20:02;;;;;;;326.03;78.60;;;;;;;3.98;54.76;100629.00;341220;28;1186;-74
2022/01/16 00:20:13;;;;;;;324.10;79.00;;;;;;;4.00;55.08;100635.06;338608;29;1008;-74
2022/01/16 00:20:25;;;;;;;324.88;79.95;;;;;;;4.01;54.94;100631.59;339613;28;1240;-74
2022/01/16 00:20:35;;;;;;;324.98;81.93;;;;;;;4.01;55.21;100625.56;338288;28;1352;-74
2022/01/16 00:20:46;;;;;;;325.58;80.95;;;;;;;3.98;55.26;100620.38;342902;28;983;-74
2022/01/16 00:20:56;;;;;;;325.30;80.23;;;;;;;3.98;55.01;100628.16;339984;29;1298;-74
2022/01/16 00:21:07;;;;;;;325.65;78.90;;;;;;;3.96;54.98;100632.47;341648;28;837;-74
2022/01/16 00:21:22;;;;;;;323.87;78.50;;;;;;;3.98;54.88;100633.31;338709;29;961;-74
2022/01/16 00:21:36;;;;;;;323.60;76.85;;;;;;;3.98;55.00;100630.72;341337;28;1445;-74
2022/01/16 00:21:46;;;;;;;323.48;76.32;;;;;;;3.98;54.79;100639.38;341360;28;1399;-74
2022/01/16 00:21:58;;;;;;;323.80;77.23;;;;;;;3.99;54.90;100645.41;337765;29;1385;-75
2022/01/16 00:22:13;;;;;;;324.92;77.80;;;;;;;4.00;55.02;100639.38;342842;28;802;-74
2022/01/16 00:22:25;;;;;;;323.73;77.05;;;;;;;4.01;54.89;100634.19;342853;28;900;-75
2022/01/16 00:22:38;;;;;;;323.73;77.55;;;;;;;4.04;55.19;100645.44;341432;28;1565;-74
2022/01/16 00:22:49;;;;;;;325.63;78.32;;;;;;;4.01;55.32;100646.28;342763;28;1287;-74
2022/01/16 00:23:00;;;;;;;326.00;78.07;;;;;;;4.00;54.97;100644.56;341544;28;912;-74
2022/01/16 00:23:10;;;;;;;326.07;78.57;;;;;;;3.99;55.33;100650.59;340283;29;829;-74
2022/01/16 00:23:26;;;;;;;325.95;79.72;;;;;;;3.98;55.27;100649.72;341073;28;1363;-74
2022/01/16 00:23:37;;;;;;;325.13;80.00;;;;;;;3.99;55.21;100653.19;340044;29;1045;-75
2022/01/16 00:23:49;;;;;;;327.67;79.17;;;;;;;4.00;54.78;100654.91;338874;29;866;-72
2022/01/16 00:24:00;;;;;;;328.17;79.28;;;;;;;3.99;55.24;100650.59;337529;29;1049;-74
2022/01/16 00:24:10;;;;;;;328.03;79.07;;;;;;;3.99;55.21;100653.19;341387;28;1206;-73
2022/01/16 00:24:21;;;;;;;326.45;80.57;;;;;;;4.00;55.53;100654.91;342182;28;1605;-72
2022/01/16 00:24:31;;;;;;;326.88;79.93;;;;;;;3.99;55.20;100655.78;341522;28;1934;-72
2022/01/16 00:24:42;;;;;;;325.30;78.83;;;;;;;4.00;55.26;100660.09;341648;28;2304;-72
2022/01/16 00:24:52;;;;;;;324.67;78.13;;;;;;;3.99;54.90;100664.41;341766;28;901;-73
2022/01/16 00:25:03;;;;;;;324.57;78.77;;;;;;;3.99;54.98;100669.59;338878;29;915;-73
2022/01/16 00:25:14;;;;;;;325.77;80.53;;;;;;;4.01;55.48;100667.88;336043;29;889;-73
2022/01/16 00:25:25;;;;;;;325.33;81.28;;;;;;;4.00;55.17;100670.44;337912;29;1289;-74
2022/01/16 00:25:35;;;;;;;325.08;81.70;;;;;;;3.97;54.94;100671.31;341113;28;1208;-73
2022/01/16 00:25:45;;;;;;;325.60;80.60;;;;;;;3.97;54.98;100680.78;339010;29;846;-73
2022/01/16 00:25:57;;;;;;;325.92;79.53;;;;;;;3.97;55.44;100681.66;338896;29;1134;-73
2022/01/16 00:26:07;;;;;;;325.50;79.03;;;;;;;3.95;55.01;100680.78;337394;29;1328;-73
2022/01/16 00:26:18;;;;;;;325.95;78.57;;;;;;;3.94;55.02;100685.97;340134;29;1363;-73
2022/01/16 00:26:28;;;;;;;324.48;78.65;;;;;;;3.93;55.16;100685.09;341499;28;1326;-73
2022/01/16 00:26:40;;;;;;;323.43;78.33;;;;;;;3.93;55.51;100684.25;339918;28;1205;-73
2022/01/16 00:26:51;;;;;;;324.67;79.35;;;;;;;3.95;55.01;100685.97;341325;28;952;-73
2022/01/16 00:27:01;;;;;;;326.10;79.57;;;;;;;3.96;55.27;100694.59;339014;29;810;-73
2022/01/16 00:27:11;;;;;;;326.67;79.22;;;;;;;3.96;54.98;100694.59;340275;29;1202;-73
2022/01/16 00:27:23;;;;;;;327.57;79.10;;;;;;;3.95;54.93;100692.88;340163;29;1168;-73
2022/01/16 00:27:34;;;;;;;328.75;80.00;;;;;;;3.96;55.32;100689.44;340069;28;1405;-73
2022/01/16 00:27:44;;;;;;;328.70;80.18;;;;;;;3.95;55.43;100693.75;341240;28;1450;-74
2022/01/16 00:27:54;;;;;;;328.87;78.87;;;;;;;3.97;55.29;100685.97;340475;29;1033;-73
2022/01/16 00:28:05;;;;;;;326.02;77.60;;;;;;;3.96;55.09;100690.28;338906;29;941;-73
2022/01/16 00:28:15;;;;;;;328.73;78.83;;;;;;;3.94;55.45;100693.72;338927;28;1812;-74
2022/01/16 00:28:26;;;;;;;327.20;79.05;;;;;;;3.92;55.13;100693.72;344209;28;1247;-74
2022/01/16 00:28:36;;;;;;;327.43;79.53;;;;;;;3.91;55.60;100689.41;341322;28;1447;-74
2022/01/16 00:28:49;;;;;;;322.52;78.38;;;;;;;3.91;55.62;100691.13;341412;28;1334;-74
2022/01/16 00:29:00;;;;;;;321.95;76.65;;;;;;;3.93;55.34;100692.00;340001;28;1411;-74
2022/01/16 00:29:11;;;;;;;323.73;77.37;;;;;;;3.92;55.44;100698.03;342838;28;1311;-74
2022/01/16 00:29:21;;;;;;;325.48;77.85;;;;;;;3.92;55.20;100692.88;340862;28;1893;-74
2022/01/16 00:29:32;;;;;;;323.43;77.87;;;;;;;3.94;55.17;100693.72;338881;29;1189;-74
2022/01/16 00:29:42;;;;;;;324.55;78.70;;;;;;;3.94;55.19;100692.00;340515;28;1367;-74
2022/01/16 00:29:53;;;;;;;324.57;78.87;;;;;;;3.95;55.55;100700.66;342117;28;1440;-74
2022/01/16 00:30:04;;;;;;;324.90;77.80;;;;;;;3.96;55.33;100697.19;341371;28;1249;-74
2022/01/16 00:30:14;;;;;;;322.33;76.30;;;;;;;3.96;55.23;100694.59;338898;29;913;-73
2022/01/16 00:30:25;;;;;;;322.43;77.80;;;;;;;3.96;55.25;100700.66;339762;28;1192;-74
2022/01/16 00:30:35;;;;;;;323.95;79.60;;;;;;;3.94;55.59;100698.91;339824;28;1252;-74
2022/01/16 00:30:46;;;;;;;327.03;80.93;;;;;;;3.95;55.26;100711.88;338850;29;921;-74
2022/01/16 00:30:56;;;;;;;327.00;80.45;;;;;;;3.96;55.21;100715.31;340745;28;1718;-74
2022/01/16 00:31:07;;;;;;;327.02;80.40;;;;;;;3.97;55.07;100714.47;344267;28;1223;-74
2022/01/16 00:31:18;;;;;;;326.70;80.93;;;;;;;3.96;55.56;100712.72;341475;28;907;-74
2022/01/16 00:31:29;;;;;;;326.90;80.80;;;;;;;3.97;55.03;100717.06;338796;29;1655;-74
2022/01/16 00:31:41;;;;;;;326.97;80.10;;;;;;;3.97;55.42;100722.22;342787;28;859;-75
2022/01/16 00:31:51;;;;;;;326.50;79.10;;;;;;;3.96;55.35;100718.78;342588;28;881;-74
2022/01/16 00:32:02;;;;;;;325.30;79.13;;;;;;;3.95;55.26;100723.94;340258;29;1078;-74
2022/01/16 00:32:12;;;;;;;325.10;79.13;;;;;;;3.98;55.18;100730.00;338991;29;1003;-74
2022/01/16 00:32:23;;;;;;;324.23;78.43;;;;;;;3.97;55.44;100736.03;338629;29;868;-74
2022/01/16 00:32:33;;;;;;;325.67;78.07;;;;;;;3.98;55.20;100734.31;340024;29;1385;-74
2022/01/16 00:32:44;;;;;;;325.87;77.37;;;;;;;3.97;55.10;100737.78;338609;29;1221;-74
2022/01/16 00:33:00;;;;;;;325.50;77.68;;;;;;;3.94;55.06;100743.81;341323;28;861;-74
2022/01/16 00:33:11;;;;;;;323.27;78.65;;;;;;;3.92;55.34;100747.25;341565;28;1276;-74
2022/01/16 00:33:21;;;;;;;325.30;79.17;;;;;;;3.93;55.21;100748.97;337228;28;1193;-74
2022/01/16 00:33:31;;;;;;;323.77;76.70;;;;;;;3.93;55.15;100756.75;341579;28;1185;-74
2022/01/16 00:33:44;;;;;;;323.17;76.03;;;;;;;3.92;55.47;100755.00;341269;28;1160;-74
2022/01/16 00:33:55;;;;;;;322.50;75.80;;;;;;;3.94;55.15;100758.47;344010;28;838;-74
2022/01/16 00:34:05;;;;;;;324.90;77.63;;;;;;;3.92;54.96;100758.47;343065;28;1213;-74
2022/01/16 00:34:15;;;;;;;325.77;78.57;;;;;;;3.90;55.18;100759.34;340237;28;1364;-74
2022/01/16 00:34:26;;;;;;;325.00;78.80;;;;;;;3.91;54.83;100753.28;339793;29;1865;-74
2022/01/16 00:34:36;;;;;;;323.77;78.55;;;;;;;3.92;55.34;100762.78;339964;28;1861;-74
2022/01/16 00:34:47;;;;;;;324.40;79.63;;;;;;;3.91;54.98;100750.69;340060;29;877;-74
2022/01/16 00:34:57;;;;;;;325.23;79.47;;;;;;;3.93;54.73;100754.16;340048;29;877;-74
2022/01/16 00:35:08;;;;;;;325.47;79.80;;;;;;;3.94;55.44;100753.28;339715;28;1213;-74
2022/01/16 00:35:19;;;;;;;325.83;78.38;;;;;;;3.93;55.40;100751.56;339615;28;862;-74
2022/01/16 00:35:29;;;;;;;324.65;78.90;;;;;;;3.93;54.84;100751.56;342391;28;963;-74
2022/01/16 00:35:40;;;;;;;324.27;79.23;;;;;;;3.93;55.27;100743.78;338884;29;1029;-74
2022/01/16 00:35:50;;;;;;;323.98;78.57;;;;;;;3.94;54.95;100737.75;341311;28;1244;-74
2022/01/16 00:36:00;;;;;;;327.97;79.73;;;;;;;3.95;55.11;100740.34;338026;28;1638;-74
2022/01/16 00:36:12;;;;;;;327.20;78.63;;;;;;;3.97;54.87;100732.59;339021;28;1252;-74
2022/01/16 00:36:22;;;;;;;325.52;79.03;;;;;;;3.98;55.34;100734.31;340243;28;1306;-74
2022/01/16 00:36:33;;;;;;;321.95;76.70;;;;;;;3.98;55.24;100736.91;340439;28;937;-74
2022/01/16 00:36:43;;;;;;;325.00;77.83;;;;;;;4.00;55.22;100722.25;342648;28;1295;-74
2022/01/16 00:36:53;;;;;;;325.23;78.70;;;;;;;4.00;54.96;100722.25;338921;29;814;-74
2022/01/16 00:37:04;;;;;;;325.77;78.73;;;;;;;4.01;55.12;100718.78;338763;29;917;-74
2022/01/16 00:37:14;;;;;;;325.60;79.13;;;;;;;4.01;55.14;100716.22;339913;28;1965;-73
2022/01/16 00:37:24;;;;;;;325.57;78.67;;;;;;;3.99;55.06;100720.50;341368;28;1292;-74
2022/01/16 00:37:35;;;;;;;324.02;78.68;;;;;;;4.02;54.87;100723.13;341160;28;1496;-74
2022/01/16 00:37:47;;;;;;;322.83;78.53;;;;;;;4.02;54.83;100712.75;341344;28;862;-74
2022/01/16 00:37:57;;;;;;;322.58;77.53;;;;;;;4.01;54.94;100708.44;341412;28;862;-74
2022/01/16 00:38:08;;;;;;;324.80;77.85;;;;;;;4.01;54.87;100708.44;341367;28;872;-74
2022/01/16 00:38:18;;;;;;;324.75;77.95;;;;;;;4.00;54.56;100707.56;344138;28;1088;-75
2022/01/16 00:38:29;;;;;;;325.57;78.70;;;;;;;4.00;54.86;100701.53;343763;28;863;-74
2022/01/16 00:38:40;;;;;;;325.07;79.43;;;;;;;4.02;54.87;100707.56;340064;29;1104;-74
2022/01/16 00:38:52;;;;;;;324.50;78.40;;;;;;;4.00;54.63;100693.75;340439;29;932;-74
2022/01/16 00:39:03;;;;;;;322.52;77.15;;;;;;;3.99;54.71;100697.22;343382;28;1406;-74
2022/01/16 00:39:14;;;;;;;322.38;77.28;;;;;;;4.01;54.79;100690.31;341236;29;956;-74
2022/01/16 00:39:24;;;;;;;323.08;77.68;;;;;;;4.01;55.00;100682.53;342561;28;1088;-74
2022/01/16 00:39:35;;;;;;;322.70;76.93;;;;;;;3.99;55.14;100684.25;341417;29;818;-74
2022/01/16 00:39:45;;;;;;;322.52;76.57;;;;;;;4.00;54.88;100671.31;341333;29;854;-74
2022/01/16 00:39:55;;;;;;;323.17;77.37;;;;;;;4.01;54.76;100672.19;344658;28;962;-74
2022/01/16 00:40:07;;;;;;;321.88;76.90;;;;;;;4.01;54.67;100667.00;345263;28;1572;-74
2022/01/16 00:40:18;;;;;;;321.25;76.68;;;;;;;4.00;54.64;100655.78;342513;28;1270;-74
2022/01/16 00:40:29;;;;;;;321.80;77.00;;;;;;;4.01;54.82;100667.88;339957;29;1020;-74
2022/01/16 00:40:41;;;;;;;324.00;77.72;;;;;;;4.00;54.87;100655.78;342728;28;902;-74
2022/01/16 00:40:51;;;;;;;324.33;78.38;;;;;;;3.99;54.69;100643.69;342553;28;1300;-74
2022/01/16 00:41:02;;;;;;;324.77;78.00;;;;;;;3.99;54.81;100638.50;342580;28;1412;-74
2022/01/16 00:41:12;;;;;;;324.50;78.60;;;;;;;3.98;54.70;100636.78;342712;28;951;-74
2022/01/16 00:41:23;;;;;;;323.27;77.68;;;;;;;3.96;54.55;100635.03;339865;28;1337;-74
2022/01/16 00:41:35;;;;;;;321.70;76.78;;;;;;;3.93;54.69;100632.44;341548;29;837;-73
2022/01/16 00:41:46;;;;;;;322.02;76.65;;;;;;;3.93;54.49;100619.50;340009;29;902;-73
2022/01/16 00:41:57;;;;;;;322.20;76.15;;;;;;;3.93;54.73;100625.53;342635;28;850;-75
2022/01/16 00:42:07;;;;;;;321.80;75.83;;;;;;;3.94;54.41;100616.06;343948;28;1273;-74
2022/01/16 00:42:18;;;;;;;321.57;75.73;;;;;;;3.94;54.94;100622.09;341267;29;1932;-74
2022/01/16 00:42:29;;;;;;;322.00;76.30;;;;;;;3.94;54.60;100614.31;340025;29;1319;-74
2022/01/16 00:42:39;;;;;;;323.50;77.15;;;;;;;3.94;54.39;100609.16;345196;28;1708;-74
2022/01/16 00:42:49;;;;;;;324.97;77.73;;;;;;;3.95;54.26;100607.41;344015;28;1230;-73
2022/01/16 00:43:00;;;;;;;325.75;77.68;;;;;;;3.97;54.25;100608.28;343944;28;1091;-73
2022/01/16 00:43:10;;;;;;;326.30;78.03;;;;;;;3.97;54.85;100608.28;341067;28;1738;-75
2022/01/16 00:43:21;;;;;;;326.77;80.25;;;;;;;3.98;54.90;100604.84;339809;28;1957;-73
2022/01/16 00:43:31;;;;;;;327.30;82.60;;;;;;;3.96;54.26;100598.78;340881;28;848;-73
2022/01/16 00:43:42;;;;;;;326.42;81.78;;;;;;;3.94;54.67;100597.91;339914;28;1320;-74
2022/01/16 00:43:53;;;;;;;325.13;79.55;;;;;;;3.92;54.58;100587.56;341351;28;1312;-73
2022/01/16 00:44:04;;;;;;;324.45;77.28;;;;;;;3.93;54.58;100593.59;343652;28;995;-73
2022/01/16 00:44:14;;;;;;;324.52;76.22;;;;;;;3.89;55.03;100578.97;342620;28;1188;-73
2022/01/16 00:44:25;;;;;;;324.53;76.07;;;;;;;3.90;55.04;100576.34;344033;28;982;-74
2022/01/16 00:44:36;;;;;;;324.15;75.53;;;;;;;3.90;54.63;100575.50;343711;28;1152;-74
2022/01/16 00:44:46;;;;;;;322.48;74.85;;;;;;;3.91;54.51;100567.72;343815;28;1403;-73
2022/01/16 00:44:57;;;;;;;322.70;76.07;;;;;;;3.91;54.62;100566.84;342494;28;2267;-73
2022/01/16 00:45:07;;;;;;;322.48;76.70;;;;;;;3.91;54.65;100566.84;342675;28;960;-73
2022/01/16 00:45:18;;;;;;;323.23;78.28;;;;;;;3.90;54.83;100557.38;341085;28;2160;-73
2022/01/16 00:45:34;;;;;;;324.50;78.17;;;;;;;3.92;54.92;100545.28;342530;28;1225;-73
2022/01/16 00:45:45;;;;;;;323.55;77.50;;;;;;;3.92;55.14;100538.38;341231;28;1336;-73
2022/01/16 00:45:55;;;;;;;322.17;76.27;;;;;;;3.94;54.79;100530.59;340924;28;1725;-74
2022/01/16 00:46:06;;;;;;;323.77;76.95;;;;;;;3.94;54.67;100526.28;341222;29;1245;-74
2022/01/16 00:46:16;;;;;;;323.47;76.43;;;;;;;3.96;54.88;100526.28;342691;28;1318;-74
2022/01/16 00:46:27;;;;;;;322.60;76.35;;;;;;;3.96;54.82;100518.50;342653;28;976;-74
2022/01/16 00:46:37;;;;;;;323.02;75.60;;;;;;;3.95;54.59;100512.47;344005;28;1301;-74
2022/01/16 00:46:48;;;;;;;324.03;76.17;;;;;;;3.96;54.98;100502.97;342651;28;1201;-73
2022/01/16 00:46:58;;;;;;;325.25;77.38;;;;;;;3.96;54.86;100505.56;341300;29;927;-73
2022/01/16 00:47:08;;;;;;;324.73;77.77;;;;;;;3.97;55.04;100504.69;342580;28;1337;-74
2022/01/16 00:47:19;;;;;;;323.83;76.97;;;;;;;3.96;54.89;100503.84;342487;28;1335;-74
2022/01/16 00:47:29;;;;;;;323.90;76.20;;;;;;;3.96;54.86;100502.97;342552;28;1315;-74
2022/01/16 00:47:40;;;;;;;321.75;75.93;;;;;;;3.95;54.67;100498.66;342505;28;1366;-73
2022/01/16 00:47:50;;;;;;;321.57;76.70;;;;;;;3.95;54.73;100496.06;341372;29;972;-73
2022/01/16 00:48:02;;;;;;;320.63;75.97;;;;;;;3.94;54.87;100491.75;342696;28;1277;-73
2022/01/16 00:48:13;;;;;;;324.08;77.14;;;;;;;3.92;54.79;100483.13;341376;29;925;-74
2022/01/16 00:48:23;;;;;;;326.10;77.77;;;;;;;3.93;54.57;100490.88;342594;28;927;-74
2022/01/16 00:48:33;;;;;;;325.75;77.95;;;;;;;3.92;54.79;100486.56;342635;28;1339;-73
2022/01/16 00:48:44;;;;;;;324.17;76.93;;;;;;;3.92;54.77;100481.41;342456;28;1177;-73
2022/01/16 00:48:54;;;;;;;322.67;76.85;;;;;;;3.91;54.72;100484.00;343982;28;882;-73
2022/01/16 00:49:05;;;;;;;321.87;76.17;;;;;;;3.87;54.71;100477.13;339964;29;949;-73
2022/01/16 00:49:15;;;;;;;322.08;76.35;;;;;;;3.86;54.54;100481.44;339837;29;1798;-73
2022/01/16 00:49:26;;;;;;;323.23;75.57;;;;;;;3.85;55.06;100481.44;339971;29;1216;-73
2022/01/16 00:49:39;;;;;;;323.85;76.20;;;;;;;3.85;54.56;100486.59;341324;28;1032;-74
2022/01/16 00:49:49;;;;;;;322.10;75.53;;;;;;;3.87;54.68;100483.16;339816;28;1404;-74
2022/01/16 00:50:00;;;;;;;321.57;75.63;;;;;;;3.89;54.69;100480.56;340403;28;2153;-74
2022/01/16 00:50:10;;;;;;;320.73;75.33;;;;;;;3.90;54.50;100477.13;345292;28;1418;-73
2022/01/16 00:50:21;;;;;;;322.13;76.28;;;;;;;3.91;54.83;100481.41;342524;28;1249;-73
2022/01/16 00:50:31;;;;;;;322.87;75.80;;;;;;;3.91;54.72;100484.00;343716;28;1864;-72
2022/01/16 00:50:42;;;;;;;322.48;75.65;;;;;;;3.93;54.59;100482.25;343882;28;1347;-72
2022/01/16 00:50:52;;;;;;;322.73;75.77;;;;;;;3.93;54.67;100483.13;343897;28;1237;-73
2022/01/16 00:51:03;;;;;;;323.17;76.15;;;;;;;3.93;54.80;100477.09;342620;28;1285;-73
2022/01/16 00:51:14;;;;;;;322.35;75.47;;;;;;;3.94;54.81;100481.41;339944;29;893;-73
2022/01/16 00:51:24;;;;;;;322.07;75.70;;;;;;;3.93;54.42;100483.13;343807;28;1212;-73
2022/01/16 00:51:34;;;;;;;320.25;75.88;;;;;;;3.93;54.35;100487.44;345388;28;1005;-73
2022/01/16 00:51:46;;;;;;;319.93;76.77;;;;;;;3.94;54.39;100481.41;345269;28;1189;-73
2022/01/16 00:51:57;;;;;;;321.95;77.50;;;;;;;3.94;54.38;100479.66;338554;29;1471;-73
2022/01/16 00:52:07;;;;;;;323.27;76.83;;;;;;;3.93;54.64;100479.66;340177;29;948;-73
2022/01/16 00:52:19;;;;;;;327.05;78.55;;;;;;;3.92;54.98;100481.41;342691;28;864;-74
2022/01/16 00:52:29;;;;;;;326.75;77.45;;;;;;;3.91;55.05;100484.00;346646;28;1302;-73
2022/01/16 00:52:40;;;;;;;324.50;76.80;;;;;;;3.91;54.76;100473.63;347945;28;1041;-73
2022/01/16 00:52:50;;;;;;;321.73;75.37;;;;;;;3.91;54.76;100478.81;345352;28;828;-73
2022/01/16 00:53:01;;;;;;;320.00;75.80;;;;;;;3.90;54.40;100474.53;342601;28;1370;-74
2022/01/16 00:53:12;;;;;;;319.60;74.40;;;;;;;3.90;54.70;100479.69;340007;28;1260;-74
2022/01/16 00:53:22;;;;;;;321.10;74.13;;;;;;;3.91;54.50;100486.56;338297;29;1386;-74
2022/01/16 00:53:32;;;;;;;322.17;74.80;;;;;;;3.91;54.38;100489.16;339864;29;1236;-74
2022/01/16 00:53:43;;;;;;;322.43;76.00;;;;;;;3.93;54.39;100487.44;341187;29;992;-74
2022/01/16 00:53:53;;;;;;;321.67;76.40;;;;;;;3.93;54.35;100492.63;341298;28;1335;-74
2022/01/16 00:54:05;;;;;;;322.83;77.10;;;;;;;3.96;55.01;100495.22;341052;29;1485;-74
2022/01/16 00:54:15;;;;;;;321.98;77.20;;;;;;;3.95;54.58;100496.94;339948;28;1342;-74
2022/01/16 00:54:26;;;;;;;324.83;77.17;;;;;;;3.94;54.24;100497.78;339820;29;1086;-74
2022/01/16 00:54:36;;;;;;;324.02;76.80;;;;;;;3.92;54.42;100496.06;342519;28;880;-74